Terminal Aerodrome Forecast
Issued by NWS Flagstaff, AZ

Home | Current Version | Previous Version | Text Only | Print | Product List | Glossary On
Versions: 1 2 3 4 5 6 7 8 9 10 11 12 13 14 15 16 17
000
FTUS45 KFGZ 242300
TAFFLG
TAF
KFLG 242334Z 2500/2524 06009KT P6SM FEW250
     FM250100 08010KT P6SM FEW250
     FM251500 07012G22KT P6SM FEW250
     FM252100 06010KT P6SM FEW250=

USA.gov is the U.S. government's official web portal to all federal, state and local government web resources and services.